Portada
METAR-TAF:

METAR-TAF

Aeroports :

Agartala, Índia

latitud: 23-53-24N, longitud: 91-14-32E, altitud: 14 m

Observació

L'informe es va fer fa 25 minuts, a les 03:30 UTC
Vent calma
Temperatura 24°C
Humitat 78%
Pressió 1017 hPa
Visibilitat: 2000 m
boirina

METAR: VEAT 210330Z 00000KT 2000 BR NSC 24/20 Q1017 BECMG 3000 HZ

Hora: 09:25 (03:55 UTC)

Pronòstic

L'informe es va fer fa 1 hora i 55 minuts, a les 02:00 UTC
Pronòstic vàlid del 21 a les 03 UTC al 21 a les 12 UTC
Vent kt del Nord
Visibilitat: 1500 m
Escasses núvols a una alçada de 1800 ft
boirina
Evolucionant progressivament
l' 21 a les 04 UTC al 21 a les 06 UTC
Visibilitat: 3000 m
boirina

TAF: VEAT 210200Z 2103/2112 00000KT 1500 BR FEW018 BECMG 2104/2106 3000 BR

Observacions i pronòstics meteorològics de més de 4000 aeroports (METAR i TAF).

Les estacions disponibles són els punts grocs i vermells al mapa.

Posi el ratolí al punt desitjat per veure el nom de l'estació.

Feu clic per veure les observacions i els pronòstics meteorològics.

Per canviar el mapa: feu clic els botons verds amb una creu de color negre per apropar; al botó verd amb un guió per allunyar la imatge; o en les fletxes verdes per a mapes adjacents.


METAR-TAF: